Time;durP1;ratioP1;P1;durP2;ratioP2;P2;SDS_P1;SDS_P2;PMS_P1;PMS_P2;Temp;Humidity;BMP_temperature;BMP_pressure;BME280_temperature;BME280_humidity;BME280_pressure;Samples;Min_cycle;Max_cycle;Signal;HPM_P1;HPM_P2
2024/02/06 00:02:13;;;;;;;10.18;4.85;;;;;;;3.88;100.00;99292.41;5032306;28;20113;-79
2024/02/06 00:04:39;;;;;;;12.68;5.70;;;;;;;3.71;100.00;99276.09;5037620;28;20092;-80
2024/02/06 00:07:08;;;;;;;10.82;5.07;;;;;;;3.71;100.00;99284.13;5027141;28;20085;-80
2024/02/06 00:09:33;;;;;;;12.35;5.45;;;;;;;3.76;100.00;99293.56;5036347;28;20117;-81
2024/02/06 00:11:58;;;;;;;12.48;5.93;;;;;;;3.57;100.00;99257.88;5020182;28;20030;-81
2024/02/06 00:14:24;;;;;;;11.10;5.68;;;;;;;3.77;100.00;99284.53;5037578;28;20032;-80
2024/02/06 00:16:49;;;;;;;15.10;6.38;;;;;;;3.90;100.00;99295.75;5035678;28;20018;-79
2024/02/06 00:19:14;;;;;;;11.45;6.13;;;;;;;3.97;100.00;99272.75;5032321;28;20037;-79
2024/02/06 00:21:40;;;;;;;14.02;5.70;;;;;;;4.24;100.00;99287.09;5031654;28;20032;-79
2024/02/06 00:24:05;;;;;;;10.82;5.40;;;;;;;4.35;100.00;99284.22;5034040;28;20089;-79
2024/02/06 00:26:30;;;;;;;10.10;5.30;;;;;;;4.36;100.00;99280.53;5025696;28;20017;-79
2024/02/06 00:28:56;;;;;;;12.93;4.88;;;;;;;4.40;100.00;99268.50;5029388;28;20032;-80
2024/02/06 00:31:22;;;;;;;8.73;5.15;;;;;;;4.57;100.00;99288.28;5034344;28;20033;-79
2024/02/06 00:33:47;;;;;;;14.23;5.30;;;;;;;4.44;100.00;99251.16;5028718;28;20038;-79
2024/02/06 00:36:12;;;;;;;15.73;5.55;;;;;;;4.43;100.00;99244.13;5025718;28;20045;-79
2024/02/06 00:38:38;;;;;;;13.80;5.80;;;;;;;4.67;100.00;99293.56;5033422;28;20030;-79
2024/02/06 00:41:03;;;;;;;10.20;5.07;;;;;;;4.66;100.00;99275.78;5022545;28;20041;-78
2024/02/06 00:43:28;;;;;;;20.42;5.65;;;;;;;4.66;100.00;99275.78;5031641;28;20022;-80
2024/02/06 00:45:54;;;;;;;10.25;5.20;;;;;;;4.75;100.00;99275.72;5030512;28;20025;-79
2024/02/06 00:48:19;;;;;;;13.27;5.28;;;;;;;4.86;100.00;99293.38;5031533;28;20025;-80
2024/02/06 00:50:45;;;;;;;16.13;5.55;;;;;;;4.94;100.00;99296.13;5028222;28;20036;-79
2024/02/06 00:53:11;;;;;;;17.88;4.93;;;;;;;4.89;100.00;99285.03;5033372;28;20329;-80
2024/02/06 00:55:36;;;;;;;10.43;4.70;;;;;;;4.93;100.00;99281.06;5028542;28;20057;-79
2024/02/06 00:58:02;;;;;;;15.93;4.68;;;;;;;4.93;100.00;99286.41;5024935;28;20040;-79
2024/02/06 01:00:27;;;;;;;11.68;5.22;;;;;;;5.00;100.00;99290.19;5019213;28;20030;-79
2024/02/06 01:02:53;;;;;;;10.32;4.68;;;;;;;4.99;100.00;99275.06;5017613;28;20325;-79
2024/02/06 01:05:18;;;;;;;8.70;4.63;;;;;;;5.03;100.00;99283.63;5022875;28;20033;-79
2024/02/06 01:07:43;;;;;;;9.15;4.40;;;;;;;4.97;100.00;99269.00;5023297;28;20349;-79
2024/02/06 01:10:09;;;;;;;10.70;4.93;;;;;;;4.95;100.00;99264.78;5024768;28;20032;-79
2024/02/06 01:12:34;;;;;;;11.75;4.15;;;;;;;5.03;100.00;99268.41;5017707;28;20036;-79
2024/02/06 01:14:59;;;;;;;10.25;4.78;;;;;;;4.98;100.00;99243.91;5023871;28;20029;-79
2024/02/06 01:17:26;;;;;;;15.35;4.88;;;;;;;5.07;100.00;99263.56;5023417;28;20041;-79
2024/02/06 01:19:51;;;;;;;10.10;5.10;;;;;;;5.12;100.00;99263.94;5020133;28;20037;-78
2024/02/06 01:22:17;;;;;;;10.65;5.00;;;;;;;5.07;100.00;99258.19;5020690;28;20017;-79
2024/02/06 01:24:42;;;;;;;15.60;4.55;;;;;;;4.92;100.00;99265.94;5021753;28;20053;-81
2024/02/06 01:27:07;;;;;;;11.57;4.70;;;;;;;4.77;100.00;99232.69;5030663;28;20081;-80
2024/02/06 01:29:34;;;;;;;10.98;4.03;;;;;;;5.05;100.00;99269.06;5031192;28;20057;-80
2024/02/06 01:31:59;;;;;;;9.68;4.88;;;;;;;5.08;100.00;99275.94;5026647;28;20014;-79
2024/02/06 01:34:24;;;;;;;14.55;4.57;;;;;;;4.90;100.00;99264.41;5018986;28;20024;-79
2024/02/06 01:36:50;;;;;;;9.10;4.82;;;;;;;5.11;100.00;99283.72;5020539;28;20058;-79
2024/02/06 01:39:15;;;;;;;19.25;5.57;;;;;;;5.11;100.00;99270.31;5015799;28;20238;-79
2024/02/06 01:41:40;;;;;;;14.73;5.18;;;;;;;5.08;100.00;99243.78;5019562;28;20022;-80
2024/02/06 01:44:06;;;;;;;8.90;4.57;;;;;;;5.22;100.00;99271.88;5029926;28;20030;-79
2024/02/06 01:46:32;;;;;;;13.07;5.40;;;;;;;5.13;100.00;99254.03;5003229;28;20109;-80
2024/02/06 01:48:58;;;;;;;14.68;4.90;;;;;;;5.19;100.00;99261.47;5026724;28;20385;-79
2024/02/06 01:51:27;;;;;;;9.35;4.55;;;;;;;5.11;100.00;99264.94;5042307;28;20110;-79
2024/02/06 01:53:55;;;;;;;;;;;;;;;5.20;100.00;99276.56;5039099;28;20028;-79
2024/02/06 01:56:20;;;;;;;10.25;4.15;;;;;;;5.22;100.00;99279.94;5025656;28;19956;-80
2024/02/06 01:58:46;;;;;;;10.38;4.78;;;;;;;5.18;100.00;99255.25;5025927;28;20021;-81
2024/02/06 02:01:13;;;;;;;10.38;4.47;;;;;;;5.24;100.00;99262.69;5026939;28;20049;-79
2024/02/06 02:03:39;;;;;;;10.75;4.38;;;;;;;5.19;100.00;99246.22;5020233;28;20038;-79
2024/02/06 02:06:05;;;;;;;14.65;4.65;;;;;;;5.28;100.00;99272.06;5017349;28;20404;-80
2024/02/06 02:08:34;;;;;;;16.65;4.75;;;;;;;5.32;100.00;99271.75;5015149;28;20273;-81
2024/02/06 02:10:59;;;;;;;13.35;4.57;;;;;;;5.22;100.00;99253.94;5027011;28;20288;-81
2024/02/06 02:13:25;;;;;;;11.00;4.80;;;;;;;5.15;100.00;99250.19;5051584;28;20033;-81
2024/02/06 02:15:51;;;;;;;8.98;5.22;;;;;;;5.22;100.00;99256.63;5024012;28;20030;-79
2024/02/06 02:18:16;;;;;;;10.50;4.25;;;;;;;5.12;100.00;99228.22;5027198;28;20018;-80
2024/02/06 02:20:42;;;;;;;11.40;4.50;;;;;;;5.23;100.00;99249.41;5020146;28;20258;-79
2024/02/06 02:23:08;;;;;;;14.95;5.03;;;;;;;5.25;100.00;99255.47;5023147;28;20022;-79
2024/02/06 02:25:33;;;;;;;13.98;5.22;;;;;;;5.31;100.00;99259.34;5026207;28;20096;-80
2024/02/06 02:27:59;;;;;;;13.57;4.80;;;;;;;5.09;100.00;99228.53;5021557;28;20037;-79
2024/02/06 02:30:26;;;;;;;10.32;4.00;;;;;;;5.32;100.00;99264.56;5020606;28;20028;-80
2024/02/06 02:32:53;;;;;;;8.85;4.47;;;;;;;5.18;100.00;99255.25;5027266;28;20044;-80
2024/02/06 02:35:18;;;;;;;12.70;4.60;;;;;;;5.17;100.00;99255.41;5030404;28;20033;-78
2024/02/06 02:37:43;;;;;;;13.57;5.50;;;;;;;4.94;100.00;99223.75;5034400;28;20021;-81
2024/02/06 02:40:09;;;;;;;12.77;4.82;;;;;;;5.13;100.00;99249.50;5032990;28;20018;-79
2024/02/06 02:42:35;;;;;;;13.95;5.50;;;;;;;4.99;100.00;99247.41;5017787;28;20026;-79
2024/02/06 02:45:00;;;;;;;12.30;4.82;;;;;;;5.13;100.00;99246.81;5015843;28;20100;-79
2024/02/06 02:47:25;;;;;;;14.77;4.93;;;;;;;4.95;100.00;99230.81;5025830;28;20037;-79
2024/02/06 02:49:51;;;;;;;13.57;5.10;;;;;;;5.09;100.00;99260.72;5032399;28;20025;-79
2024/02/06 02:52:16;;;;;;;12.60;5.55;;;;;;;5.04;100.00;99251.31;5038121;28;20021;-80
2024/02/06 02:54:41;;;;;;;12.00;4.90;;;;;;;4.93;100.00;99240.84;5036492;28;20018;-79
2024/02/06 02:57:06;;;;;;;17.50;5.70;;;;;;;5.01;100.00;99253.47;5021057;28;20041;-79
2024/02/06 02:59:32;;;;;;;10.38;4.55;;;;;;;4.92;100.00;99230.25;5025750;28;20034;-79
2024/02/06 03:01:58;;;;;;;11.93;4.88;;;;;;;5.03;100.00;99241.59;5025011;28;20101;-80
2024/02/06 03:04:23;;;;;;;12.93;5.30;;;;;;;4.99;100.00;99228.63;5020801;28;20025;-81
2024/02/06 03:06:48;;;;;;;16.95;5.60;;;;;;;5.03;100.00;99246.94;5028021;28;20093;-79
2024/02/06 03:09:15;;;;;;;23.20;6.03;;;;;;;5.09;100.00;99261.56;5015802;28;20022;-79
2024/02/06 03:11:40;;;;;;;13.35;5.55;;;;;;;4.97;100.00;99241.34;5031123;28;20022;-80
2024/02/06 03:14:05;;;;;;;12.63;4.75;;;;;;;5.05;100.00;99242.25;5026061;28;20022;-79
2024/02/06 03:16:31;;;;;;;15.75;5.75;;;;;;;4.99;100.00;99244.72;5023750;28;20041;-79
2024/02/06 03:18:56;;;;;;;12.77;4.93;;;;;;;5.07;100.00;99252.00;5024829;28;20018;-79
2024/02/06 03:21:21;;;;;;;12.82;5.43;;;;;;;5.00;100.00;99238.34;5027480;28;20025;-79
2024/02/06 03:23:46;;;;;;;11.32;5.00;;;;;;;5.10;100.00;99251.66;5027976;28;20029;-80
2024/02/06 03:26:12;;;;;;;17.25;5.47;;;;;;;4.99;100.00;99242.06;5032887;28;20049;-80
2024/02/06 03:28:37;;;;;;;15.27;5.15;;;;;;;5.05;100.00;99244.94;5032331;28;20100;-80
2024/02/06 03:31:03;;;;;;;11.02;4.18;;;;;;;4.99;100.00;99253.59;5030660;28;20025;-80
2024/02/06 03:33:28;;;;;;;13.68;5.00;;;;;;;5.00;100.00;99236.53;5028505;28;20064;-80
2024/02/06 03:35:53;;;;;;;13.43;4.68;;;;;;;5.09;100.00;99247.31;5026119;28;20037;-78
2024/02/06 03:38:19;;;;;;;9.75;4.65;;;;;;;4.90;100.00;99237.59;5026702;28;20017;-80
2024/02/06 03:40:45;;;;;;;10.07;4.05;;;;;;;4.97;100.00;99257.44;5028570;28;20022;-79
2024/02/06 03:43:10;;;;;;;16.88;5.03;;;;;;;5.08;100.00;99256.34;5039433;28;20104;-80
2024/02/06 03:45:36;;;;;;;14.18;4.60;;;;;;;5.05;100.00;99266.38;5024691;28;20025;-81
2024/02/06 03:48:01;;;;;;;12.45;5.20;;;;;;;4.94;100.00;99244.34;5033974;28;20033;-79
2024/02/06 03:50:26;;;;;;;12.20;4.72;;;;;;;4.89;100.00;99247.50;5027126;28;20085;-79
2024/02/06 03:52:52;;;;;;;13.65;4.93;;;;;;;4.90;100.00;99249.19;5025765;28;20260;-79
2024/02/06 03:55:17;;;;;;;15.60;5.45;;;;;;;4.84;100.00;99247.13;5032107;28;20085;-79
2024/02/06 03:57:42;;;;;;;12.35;4.40;;;;;;;5.00;100.00;99251.75;5024602;28;20248;-79
2024/02/06 04:00:08;;;;;;;13.95;4.80;;;;;;;4.96;100.00;99261.97;5026498;28;20021;-78
2024/02/06 04:02:34;;;;;;;15.05;4.97;;;;;;;4.83;100.00;99213.28;5021407;28;20022;-79
2024/02/06 04:04:59;;;;;;;13.70;4.93;;;;;;;4.94;100.00;99239.81;5027402;28;20036;-79
2024/02/06 04:07:25;;;;;;;10.13;4.63;;;;;;;5.07;100.00;99258.19;5024580;28;20033;-80
2024/02/06 04:09:50;;;;;;;12.43;4.40;;;;;;;4.92;100.00;99239.13;5028444;28;20029;-79
2024/02/06 04:12:15;;;;;;;10.65;4.15;;;;;;;5.02;100.00;99247.09;5024525;28;20033;-79
2024/02/06 04:14:41;;;;;;;10.20;4.22;;;;;;;5.07;100.00;99243.94;5027084;28;20025;-79
2024/02/06 04:17:06;;;;;;;21.60;5.40;;;;;;;5.01;100.00;99248.94;5026041;28;20030;-79
2024/02/06 04:19:31;;;;;;;14.68;4.70;;;;;;;5.02;100.00;99249.78;5022426;28;20234;-79
2024/02/06 04:21:57;;;;;;;14.93;4.38;;;;;;;5.02;100.00;99249.78;5028483;28;20033;-79
2024/02/06 04:24:22;;;;;;;22.15;4.85;;;;;;;5.05;100.00;99254.81;5027702;28;20041;-79
2024/02/06 04:26:47;;;;;;;10.13;4.90;;;;;;;5.01;100.00;99226.66;5026087;28;20032;-79
2024/02/06 04:29:13;;;;;;;11.30;5.03;;;;;;;5.13;100.00;99256.72;5023599;28;20033;-84
2024/02/06 04:31:38;;;;;;;12.00;4.60;;;;;;;5.09;100.00;99248.16;5028210;28;20029;-82
2024/02/06 04:34:04;;;;;;;13.13;5.13;;;;;;;4.90;100.00;99222.38;5027885;28;20029;-80
2024/02/06 04:36:29;;;;;;;16.52;5.47;;;;;;;5.09;100.00;99242.78;5024848;28;20022;-80
2024/02/06 04:38:55;;;;;;;12.65;4.85;;;;;;;5.01;100.00;99224.81;5028002;28;20057;-79
2024/02/06 04:41:20;;;;;;;12.50;4.53;;;;;;;4.97;100.00;99214.53;5036465;28;20025;-78
2024/02/06 04:43:45;;;;;;;17.95;5.88;;;;;;;5.01;100.00;99227.50;5036032;28;20040;-79
2024/02/06 04:46:10;;;;;;;11.95;5.18;;;;;;;4.96;100.00;99200.31;5020803;28;20309;-77
2024/02/06 04:48:36;;;;;;;17.30;5.57;;;;;;;5.01;100.00;99206.03;5026732;28;20384;-77
2024/02/06 04:51:01;;;;;;;15.55;4.95;;;;;;;5.08;100.00;99221.47;5023273;28;20026;-80
2024/02/06 04:53:27;;;;;;;17.33;4.78;;;;;;;5.02;100.00;99196.13;5020981;28;20367;-78
2024/02/06 04:55:52;;;;;;;10.10;5.05;;;;;;;5.08;100.00;99194.66;5023495;28;20264;-79
2024/02/06 04:58:18;;;;;;;11.60;5.10;;;;;;;5.15;100.00;99201.09;5029795;28;20041;-79
2024/02/06 05:00:44;;;;;;;11.00;5.00;;;;;;;5.11;100.00;99197.88;5024139;28;20032;-86
2024/02/06 05:03:09;;;;;;;16.77;5.65;;;;;;;4.91;100.00;99164.25;5026893;28;20028;-84
2024/02/06 05:05:34;;;;;;;15.23;6.38;;;;;;;4.93;100.00;99168.44;5022544;28;20304;-83
2024/02/06 05:08:01;;;;;;;13.50;4.80;;;;;;;5.11;100.00;99173.75;5023702;28;20033;-84
2024/02/06 05:10:32;;;;;;;16.77;5.35;;;;;;;4.38;100.00;99064.25;5022230;28;20026;-84
2024/02/06 05:12:57;;;;;;;13.38;4.72;;;;;;;5.07;100.00;99177.75;5035497;28;20029;-79
2024/02/06 05:15:22;;;;;;;12.00;4.65;;;;;;;4.61;100.00;99086.84;5021078;28;20379;-79
2024/02/06 05:17:48;;;;;;;12.30;4.97;;;;;;;4.86;100.00;99127.19;5022337;28;20372;-83
2024/02/06 05:20:13;;;;;;;15.32;4.75;;;;;;;5.20;100.00;99171.94;5022199;28;20358;-81
2024/02/06 05:22:39;;;;;;;9.50;4.55;;;;;;;5.15;100.00;99174.25;5024551;28;20073;-84
2024/02/06 05:25:05;;;;;;;13.50;4.95;;;;;;;5.27;100.00;99173.84;5022683;28;20221;-86
2024/02/06 05:27:31;;;;;;;16.45;5.30;;;;;;;5.17;100.00;99172.28;5023158;28;20022;-82
2024/02/06 05:29:56;;;;;;;15.18;5.53;;;;;;;4.97;100.00;99147.50;5023159;28;20026;-79
2024/02/06 05:32:23;;;;;;;11.90;5.05;;;;;;;5.05;100.00;99153.75;5071477;23;20047;-80
2024/02/06 05:34:53;;;;;;;12.13;4.57;;;;;;;5.02;100.00;99156.75;5051702;28;20117;-75
2024/02/06 05:37:19;;;;;;;16.23;5.18;;;;;;;5.10;100.00;99158.66;5051159;28;20075;-78
2024/02/06 05:40:12;;;;;;;11.07;5.07;;;;;;;5.15;100.00;99166.22;5054303;28;20024;-82
2024/02/06 05:42:37;;;;;;;13.73;4.97;;;;;;;5.09;100.00;99158.81;5079607;28;20032;-80
2024/02/06 05:45:04;;;;;;;13.95;4.45;;;;;;;5.07;100.00;99137.50;5078898;28;20021;-76
2024/02/06 05:47:30;;;;;;;15.95;4.88;;;;;;;5.15;100.00;99155.50;5065688;28;20016;-77
2024/02/06 05:49:55;;;;;;;8.75;4.53;;;;;;;5.15;100.00;99167.06;5067075;22;20049;-65
2024/02/06 05:52:21;;;;;;;10.60;4.50;;;;;;;5.16;100.00;99166.06;5043968;28;20052;-64
2024/02/06 05:54:46;;;;;;;15.52;4.47;;;;;;;5.21;100.00;99165.56;5043895;28;20059;-64
2024/02/06 05:57:12;;;;;;;11.80;4.10;;;;;;;5.25;100.00;99169.63;5025982;28;20465;-64
2024/02/06 05:59:40;;;;;;;12.43;4.90;;;;;;;5.27;100.00;99170.31;5022016;28;20122;-64
2024/02/06 06:02:05;;;;;;;16.20;4.43;;;;;;;5.27;100.00;99173.84;5025735;28;20033;-64
2024/02/06 06:04:31;;;;;;;12.25;4.30;;;;;;;5.29;100.00;99176.34;5028204;28;20036;-64
2024/02/06 06:06:57;;;;;;;9.32;4.25;;;;;;;5.33;100.00;99161.59;5027733;28;20021;-64
2024/02/06 06:09:22;;;;;;;19.27;4.40;;;;;;;5.30;100.00;99164.63;5028437;28;20030;-63
2024/02/06 06:11:47;;;;;;;9.95;4.22;;;;;;;5.32;100.00;99173.34;5026456;28;20032;-64
2024/02/06 06:14:13;;;;;;;10.80;3.60;;;;;;;5.32;100.00;99167.13;5029044;28;20025;-63
2024/02/06 06:16:39;;;;;;;8.93;3.78;;;;;;;5.26;100.00;99169.44;5029749;28;20112;-64
2024/02/06 06:19:04;;;;;;;7.85;3.60;;;;;;;5.26;100.00;99172.13;5032508;28;20095;-64
2024/02/06 06:21:29;;;;;;;11.15;4.55;;;;;;;5.33;100.00;99158.94;5020057;28;20461;-64
2024/02/06 06:23:55;;;;;;;11.70;4.60;;;;;;;5.20;100.00;99163.91;5029520;28;20056;-64
2024/02/06 06:26:20;;;;;;;13.45;4.10;;;;;;;5.11;100.00;99148.75;5024620;28;20077;-64
2024/02/06 06:28:46;;;;;;;8.73;3.90;;;;;;;5.15;100.00;99152.81;5021920;28;20033;-57
2024/02/06 06:31:11;;;;;;;8.48;4.03;;;;;;;5.13;100.00;99160.16;5024167;28;20044;-58
2024/02/06 06:33:37;;;;;;;8.60;3.92;;;;;;;5.13;100.00;99146.75;5024201;28;20477;-57
2024/02/06 06:36:03;;;;;;;11.63;4.72;;;;;;;5.24;100.00;99159.91;5031225;28;20029;-57
2024/02/06 06:38:28;;;;;;;13.43;4.63;;;;;;;5.25;100.00;99151.69;5022852;28;20053;-57
2024/02/06 06:40:54;;;;;;;9.75;4.32;;;;;;;5.28;100.00;99161.25;5024990;28;20033;-57
2024/02/06 06:43:19;;;;;;;11.65;4.53;;;;;;;5.21;100.00;99144.09;5025580;28;20481;-57
2024/02/06 06:45:45;;;;;;;10.40;3.67;;;;;;;5.32;100.00;99159.06;5030252;28;20037;-57
2024/02/06 06:48:10;;;;;;;8.95;3.60;;;;;;;5.42;100.00;99162.47;5024148;28;20461;-57
2024/02/06 06:50:35;;;;;;;9.13;4.10;;;;;;;5.28;100.00;99148.66;5028567;28;20487;-57
2024/02/06 06:53:01;;;;;;;7.57;4.03;;;;;;;5.35;100.00;99151.56;5020993;28;20572;-57
2024/02/06 06:55:26;;;;;;;8.60;3.53;;;;;;;5.45;100.00;99159.50;5023894;28;20022;-57
2024/02/06 06:57:52;;;;;;;9.27;3.72;;;;;;;5.41;100.00;99150.06;5029013;28;20488;-57
2024/02/06 07:00:18;;;;;;;8.65;3.45;;;;;;;5.40;100.00;99140.34;5027260;28;20025;-58
2024/02/06 07:02:43;;;;;;;5.72;3.17;;;;;;;5.35;100.00;99138.16;5027089;28;20034;-58
2024/02/06 07:05:10;;;;;;;10.80;3.58;;;;;;;5.46;100.00;99145.91;5026188;28;20552;-57
2024/02/06 07:07:36;;;;;;;5.55;2.90;;;;;;;5.41;100.00;99145.53;5039306;28;20033;-57
2024/02/06 07:10:02;;;;;;;7.60;3.65;;;;;;;5.37;100.00;99144.19;5021164;28;20420;-58
2024/02/06 07:12:27;;;;;;;8.13;3.17;;;;;;;5.45;100.00;99144.22;5029484;28;20021;-57
2024/02/06 07:14:53;;;;;;;7.10;3.53;;;;;;;5.49;100.00;99142.06;5030038;28;20033;-58
2024/02/06 07:17:18;;;;;;;11.63;4.45;;;;;;;5.58;100.00;99167.06;5030417;28;20044;-57
2024/02/06 07:19:43;;;;;;;8.93;3.83;;;;;;;5.58;100.00;99153.66;5024948;28;20087;-58
2024/02/06 07:22:09;;;;;;;8.10;3.25;;;;;;;5.45;100.00;99149.59;5025635;28;20029;-58
2024/02/06 07:24:34;;;;;;;10.00;3.58;;;;;;;5.51;100.00;99163.38;5028853;28;20080;-57
2024/02/06 07:27:00;;;;;;;9.93;4.00;;;;;;;5.41;100.00;99161.63;5021329;28;20053;-57
2024/02/06 07:29:26;;;;;;;7.80;3.65;;;;;;;5.42;100.00;99155.28;5031196;28;20044;-57
2024/02/06 07:31:52;;;;;;;7.72;3.60;;;;;;;5.45;100.00;99154.97;5029082;28;20817;-58
2024/02/06 07:34:20;;;;;;;8.27;3.75;;;;;;;5.58;100.00;99173.28;5020802;28;20053;-57
2024/02/06 07:36:46;;;;;;;13.25;4.47;;;;;;;5.61;100.00;99159.53;5038701;28;20032;-58
2024/02/06 07:39:12;;;;;;;16.27;5.18;;;;;;;5.54;100.00;99169.25;5023430;28;20030;-59
2024/02/06 07:41:38;;;;;;;9.57;4.57;;;;;;;5.49;100.00;99166.19;5023920;28;20030;-57
2024/02/06 07:44:04;;;;;;;10.75;4.15;;;;;;;5.41;100.00;99172.38;5025606;28;20037;-57
2024/02/06 07:46:30;;;;;;;9.13;3.22;;;;;;;5.48;100.00;99169.91;5026387;28;20112;-58
2024/02/06 07:48:56;;;;;;;9.65;5.20;;;;;;;5.37;100.00;99172.84;5023016;28;20035;-57
2024/02/06 07:51:23;;;;;;;9.77;4.22;;;;;;;5.37;100.00;99179.09;5029567;28;20507;-58
2024/02/06 07:53:49;;;;;;;11.52;4.40;;;;;;;5.53;100.00;99180.13;5028993;28;20059;-58
2024/02/06 07:56:21;;;;;;;9.85;4.10;;;;;;;5.47;100.00;99170.88;5027684;28;20033;-57
2024/02/06 07:58:47;;;;;;;11.68;4.18;;;;;;;5.36;100.00;99172.00;5029015;28;20034;-57
2024/02/06 08:01:13;;;;;;;11.90;4.00;;;;;;;5.26;100.00;99165.94;5033580;28;20033;-58
2024/02/06 08:03:38;;;;;;;12.77;3.42;;;;;;;5.20;100.00;99153.16;5024575;28;20045;-58
2024/02/06 08:06:04;;;;;;;10.77;4.30;;;;;;;5.35;100.00;99170.34;5024112;28;20025;-53
2024/02/06 08:08:33;;;;;;;8.25;3.28;;;;;;;5.30;100.00;99156.56;5030387;28;20049;-57
2024/02/06 08:10:58;;;;;;;8.32;3.63;;;;;;;4.73;100.00;99051.72;5031913;28;20033;-57
2024/02/06 08:13:24;;;;;;;8.35;3.60;;;;;;;5.01;100.00;99104.13;5027783;28;20048;-57
2024/02/06 08:15:49;;;;;;;9.15;3.58;;;;;;;4.94;100.00;99075.44;5032471;28;20112;-57
2024/02/06 08:18:15;;;;;;;6.82;2.80;;;;;;;5.36;100.00;99150.56;5028312;28;20025;-57
2024/02/06 08:20:40;;;;;;;10.30;3.65;;;;;;;5.02;100.00;99081.66;5030987;28;20512;-58
2024/02/06 08:23:07;;;;;;;7.28;3.22;;;;;;;5.19;100.00;99095.19;5025649;28;20029;-58
2024/02/06 08:25:33;;;;;;;12.80;3.53;;;;;;;5.19;100.00;99095.19;5030291;28;20034;-57
2024/02/06 08:27:58;;;;;;;9.55;3.60;;;;;;;5.25;100.00;99108.75;5035534;28;20013;-58
2024/02/06 08:30:23;;;;;;;8.02;3.42;;;;;;;5.01;100.00;99047.81;5029960;28;20045;-56
2024/02/06 08:32:49;;;;;;;7.32;2.97;;;;;;;5.14;100.00;99084.09;5032085;28;20083;-57
2024/02/06 08:35:14;;;;;;;7.78;2.92;;;;;;;5.17;100.00;99073.03;5026895;28;20731;-57
2024/02/06 08:37:40;;;;;;;9.95;2.92;;;;;;;5.37;100.00;99073.56;5030581;28;20045;-57
2024/02/06 08:40:06;;;;;;;7.05;2.90;;;;;;;5.26;100.00;99062.16;5024334;28;20131;-57
2024/02/06 08:42:35;;;;;;;7.45;3.03;;;;;;;5.39;100.00;99067.03;5031009;28;20065;-57
2024/02/06 08:45:01;;;;;;;9.05;3.25;;;;;;;5.55;100.00;99066.25;5027815;28;20033;-57
2024/02/06 08:47:27;;;;;;;7.90;3.10;;;;;;;5.49;100.00;99057.00;5028142;28;20071;-57
2024/02/06 08:49:53;;;;;;;6.65;2.95;;;;;;;5.57;100.00;99058.03;5026459;28;20083;-57
2024/02/06 08:52:19;;;;;;;10.52;2.95;;;;;;;5.53;100.00;99048.63;5029405;28;20481;-56
2024/02/06 08:54:44;;;;;;;10.82;3.35;;;;;;;5.68;100.00;99041.59;5032196;28;20156;-57
2024/02/06 08:57:09;;;;;;;6.28;3.08;;;;;;;5.76;100.00;99038.94;5031673;28;20457;-57
2024/02/06 08:59:35;;;;;;;7.70;2.85;;;;;;;5.87;100.00;99033.25;5026321;28;20029;-57
2024/02/06 09:02:02;;;;;;;7.30;2.60;;;;;;;5.99;100.00;99059.78;5028456;28;20026;-57
2024/02/06 09:04:28;;;;;;;7.25;2.70;;;;;;;6.20;100.00;99078.91;5029927;28;20096;-57
2024/02/06 09:06:54;;;;;;;5.95;2.85;;;;;;;6.39;100.00;99101.06;5026642;28;20473;-57
2024/02/06 09:09:20;;;;;;;8.88;2.90;;;;;;;6.02;100.00;99013.78;5031487;28;20060;-57
2024/02/06 09:11:45;;;;;;;8.93;3.13;;;;;;;6.09;100.00;99034.44;5029677;28;20116;-57
2024/02/06 09:14:11;;;;;;;7.68;2.85;;;;;;;6.01;100.00;99034.44;5031065;28;20108;-57
2024/02/06 09:16:36;;;;;;;7.45;2.63;;;;;;;5.96;100.00;99017.16;5029377;28;20044;-57
2024/02/06 09:19:02;;;;;;;7.55;3.10;;;;;;;6.48;100.00;99089.31;5031797;28;20022;-57
2024/02/06 09:21:27;;;;;;;5.60;2.95;;;;;;;6.14;100.00;99039.31;5029133;28;20109;-57
2024/02/06 09:23:53;;;;;;;6.90;2.67;;;;;;;5.98;100.00;99012.47;5027459;28;20029;-56
2024/02/06 09:26:18;;;;;;;9.40;3.28;;;;;;;5.93;100.00;99037.97;5025739;28;20033;-57
2024/02/06 09:28:45;;;;;;;8.48;3.67;;;;;;;5.78;100.00;99020.81;5025783;28;20404;-58
2024/02/06 09:31:11;;;;;;;5.00;2.47;;;;;;;5.84;100.00;99016.63;5029725;28;20034;-56
2024/02/06 09:33:37;;;;;;;8.63;2.92;;;;;;;5.94;100.00;99028.06;5031629;28;20025;-57
2024/02/06 09:36:05;;;;;;;5.82;3.13;;;;;;;6.04;100.00;99063.66;5029037;28;20018;-57
2024/02/06 09:38:31;;;;;;;10.77;2.65;;;;;;;6.52;100.00;99098.72;5032635;28;20036;-58
2024/02/06 09:40:57;;;;;;;8.80;3.03;;;;;;;6.38;100.00;99105.63;5029189;28;20028;-56
2024/02/06 09:43:23;;;;;;;8.00;2.72;;;;;;;6.25;100.00;99049.69;5027552;28;20044;-56
2024/02/06 09:45:49;;;;;;;9.23;2.90;;;;;;;6.63;100.00;99110.94;5030319;28;20049;-54
2024/02/06 09:48:15;;;;;;;6.80;3.03;;;;;;;6.70;100.00;99098.50;5031132;28;20029;-55
2024/02/06 09:50:40;;;;;;;4.28;2.42;;;;;;;6.69;100.00;99102.22;5033379;28;20111;-55
2024/02/06 09:53:12;;;;;;;9.25;3.25;;;;;;;6.52;100.00;99098.72;5027360;28;20033;-56
2024/02/06 09:55:40;;;;;;;7.18;2.97;;;;;;;6.65;100.00;99100.88;5031255;28;20029;-56
2024/02/06 09:58:10;;;;;;;7.67;2.83;;;;;;;6.71;100.00;99108.28;5029368;28;20381;-56
2024/02/06 10:00:39;;;;;;;;;;;;;;;6.74;100.00;99103.38;5032493;28;20311;-53
2024/02/06 10:03:27;;;;;;;7.65;3.35;;;;;;;6.82;100.00;99105.22;5029311;28;20368;-53
2024/02/06 10:06:07;;;;;;;7.75;3.30;;;;;;;6.92;100.00;99091.59;5008476;28;20068;-57
2024/02/06 10:08:32;;;;;;;7.07;2.78;;;;;;;6.64;100.00;99048.97;5027181;28;20526;-57
2024/02/06 10:11:00;;;;;;;4.63;2.78;;;;;;;6.62;100.00;99040.22;5027355;28;20029;-57
2024/02/06 10:13:26;;;;;;;7.95;3.05;;;;;;;6.68;100.00;99039.56;5027887;28;20358;-57
2024/02/06 10:15:52;;;;;;;9.90;3.55;;;;;;;6.80;100.00;99062.34;5025327;28;20130;-57
2024/02/06 10:18:17;;;;;;;8.13;2.58;;;;;;;6.83;100.00;99065.72;5025947;28;20477;-56
2024/02/06 10:20:45;;;;;;;5.97;2.88;;;;;;;6.93;100.00;99063.66;5026437;28;20029;-56
2024/02/06 10:23:15;;;;;;;10.55;3.13;;;;;;;6.89;100.00;99056.94;5018839;28;20030;-56
2024/02/06 10:25:42;;;;;;;8.55;2.75;;;;;;;6.99;100.00;99047.66;5030702;28;20029;-56
2024/02/06 10:28:07;;;;;;;6.70;2.53;;;;;;;7.13;100.00;99048.78;5026112;28;20100;-57
2024/02/06 10:30:35;;;;;;;7.28;2.72;;;;;;;7.28;100.00;99062.31;5027851;28;20097;-57
2024/02/06 10:33:11;;;;;;;8.40;2.58;;;;;;;7.33;100.00;99065.31;5029004;28;20025;-57
2024/02/06 10:35:36;;;;;;;11.48;2.97;;;;;;;7.46;100.00;99105.97;5020413;28;20029;-65
2024/02/06 10:38:12;;;;;;;5.30;2.17;;;;;;;7.49;100.00;99104.78;5019918;28;20040;-57
2024/02/06 10:40:42;;;;;;;6.68;2.53;;;;;;;7.20;100.00;99049.78;5028976;28;20025;-56
2024/02/06 10:43:08;;;;;;;5.30;2.53;;;;;;;7.32;100.00;99033.22;5027901;28;20025;-57
2024/02/06 10:45:35;;;;;;;8.90;2.15;;;;;;;7.62;100.00;99062.00;5022892;28;20515;-57
2024/02/06 10:48:02;;;;;;;6.57;2.47;;;;;;;7.72;100.00;99058.22;5026138;28;20040;-56
2024/02/06 10:50:28;;;;;;;11.60;2.88;;;;;;;7.83;100.00;99049.72;5026732;28;20071;-56
2024/02/06 10:52:54;;;;;;;6.25;2.40;;;;;;;7.86;100.00;99050.22;5027967;28;20076;-56
2024/02/06 10:55:21;;;;;;;8.93;3.58;;;;;;;7.88;100.00;99026.59;5027654;28;20072;-57
2024/02/06 10:57:47;;;;;;;11.10;3.15;;;;;;;8.26;100.00;99080.53;5022806;28;20021;-57
2024/02/06 11:00:18;;;;;;;7.07;2.28;;;;;;;8.00;100.00;99024.31;5024725;28;20056;-57
2024/02/06 11:02:49;;;;;;;11.52;2.55;;;;;;;7.97;100.00;99013.09;5029550;28;20026;-57
2024/02/06 11:05:20;;;;;;;5.50;2.10;;;;;;;8.41;100.00;99072.53;5022268;28;20028;-57
2024/02/06 11:07:54;;;;;;;7.97;2.45;;;;;;;8.47;100.00;99073.66;5026191;28;20099;-57
2024/02/06 11:10:22;;;;;;;12.20;2.40;;;;;;;8.06;100.00;98980.47;5029662;28;20453;-56
2024/02/06 11:12:54;;;;;;;3.83;1.88;;;;;;;8.18;100.00;99021.31;5029347;28;20068;-57
2024/02/06 11:15:20;;;;;;;10.13;2.13;;;;;;;8.06;100.00;99022.75;5026802;28;20025;-56
2024/02/06 11:17:47;;;;;;;4.50;1.88;;;;;;;7.94;100.00;99003.50;5026756;28;20389;-57
2024/02/06 11:20:20;;;;;;;3.75;2.00;;;;;;;8.01;100.00;98992.81;5033317;28;20032;-56
2024/02/06 11:22:48;;;;;;;3.35;2.10;;;;;;;8.06;100.00;98995.81;5026173;28;20026;-57
2024/02/06 11:25:16;;;;;;;7.80;2.30;;;;;;;8.00;100.00;98973.13;5030075;28;20025;-57